• Join FlightAware (Why Join?)
  • Login
  • US Flag 
11:11PM EDT


 

Airport Tracker/Info


-or-


 

Live Flight TrackerFlight Track Log ✈ JBU917 ✈ 19-Apr-2013 ✈ KJFK - KORD

Flight Track Log - Related Links

Times and Time Zones

All times are in EDT time to prevent confusion due to time zone crossing. See the JBU917 flight status page for this flight to view local times or setup timezone preferences in your user account.

Time Position Orientation Groundspeed Altitude Reporting Facility
EDT Latitude Longitude Course Direction KTS MPH feet Rate Location/Type
05:16PM 40.6000 -73.8000 306° West 157 181 2,000  Level New York TRACON
05:17PM 40.5667 -73.7667 143° Southeast 242 278 4,000 2,160 Climbing New York TRACON
05:18PM 40.7959 -74.0750 304° West  Level FlightAware Approximate
05:18PM 40.6167 -73.6500 61° Northeast 318 366 6,600  Level New York TRACON
05:19PM 40.8502 -74.1836 303° West  Level FlightAware Approximate
05:19PM 40.6833 -73.5667 43° Northeast 332 382 9,800  Level New York TRACON
05:20PM 40.9069 -74.2902 306° West  Level FlightAware Approximate
05:20PM 40.7667 -73.5500 North 358 412 10,800  Level New York TRACON
05:21PM 40.9645 -74.3960 306° West  Level FlightAware Approximate
05:21PM 40.8667 -73.5667 353° North 389 448 13,300  Level New York TRACON
05:23PM 41.0192 -73.7742 314° West 360 414 17,000 1,080 Climbing New York Center
05:24PM 41.0331 -73.8903 279° West 351 404 17,000  Level New York Center
05:25PM 41.0500 -74.0289 279° West 351 404 17,000 -60 Level New York Center
05:27PM 41.0672 -74.1561 280° West 357 411 16,900 -60 Descending New York Center
05:27PM 41.0825 -74.2753 280° West 357 411 16,900  Level New York Center
05:29PM 41.1014 -74.4111 280° West 350 403 16,900 1,020 Level New York Center
05:29PM 41.1144 -74.5275 279° West 355 409 19,000 1,980 Climbing New York Center
05:30PM 41.1311 -74.6525 280° West 355 409 20,800 1,680 Climbing New York Center
05:32PM 41.1747 -74.7817 294° West 355 409 22,500 1,560 Climbing New York Center
05:32PM 41.2306 -74.9119 300° West 374 430 24,000 1,260 Climbing New York Center
05:34PM 41.2883 -75.0425 301° West 399 459 25,100 1,080 Climbing New York Center
05:35PM 41.3458 -75.1817 299° West 411 473 26,200 1,080 Climbing New York Center
05:36PM 41.4072 -75.3211 300° West 431 496 27,300 1,320 Climbing New York Center
05:36PM 41.4717 -75.4806 298° West 443 510 28,900 1,560 Climbing New York Center
05:37PM 41.5178 -75.6278 293° West 438 504 30,400 1,500 Climbing New York Center
05:38PM 41.5597 -75.7722 291° West 420 483 31,900 1,380 Climbing New York Center
05:39PM 41.6014 -75.9167 291° West 420 483 33,200 1,020 Climbing New York Center
05:41PM 41.6431 -76.0589 291° West 420 483 34,000 840 Climbing New York Center
05:42PM 41.6822 -76.2064 290° West 420 483 35,000 900 Climbing New York Center
05:42PM 41.7217 -76.3486 290° West 414 476 35,800 480 Climbing New York Center
05:44PM 41.7608 -76.4881 291° West 414 476 36,000 60 Climbing New York Center
05:45PM 41.7942 -76.6161 289° West 414 476 36,000  Level New York Center
05:46PM 41.8331 -76.7558 291° West 414 476 36,000  Level New York Center
05:47PM 41.8808 -76.9239 291° West 417 480 36,000  Level Cleveland Center
05:48PM 41.9208 -77.0694 290° West 411 473 36,000  Level Cleveland Center
05:49PM 41.9586 -77.2128 290° West 411 473 36,000  Level Cleveland Center
05:50PM 41.9983 -77.3614 290° West 416 479 36,000  Level Cleveland Center
05:51PM 42.0397 -77.5075 291° West 421 484 36,000  Level Cleveland Center
05:52PM 42.0769 -77.6569 289° West 421 484 36,000  Level Cleveland Center
05:53PM 42.1161 -77.8033 290° West 421 484 36,000  Level Cleveland Center
05:54PM 42.1550 -77.9503 290° West 421 484 36,000  Level Cleveland Center
05:55PM 42.1936 -78.0972 290° West 421 484 36,000  Level Cleveland Center
05:56PM 42.2300 -78.2361 290° West 415 478 36,000  Level Cleveland Center
05:57PM 42.2706 -78.3861 290° West 403 464 36,000  Level Cleveland Center
05:58PM 42.3042 -78.5253 288° West 397 457 36,000  Level Cleveland Center
05:59PM 42.3400 -78.6675 289° West 397 457 36,000  Level Cleveland Center
06:00PM 42.3758 -78.8125 289° West 403 464 36,000  Level Cleveland Center
06:01PM 42.4111 -78.9550 289° West 403 464 36,000  Level Cleveland Center
06:02PM 42.4464 -79.0947 289° West 403 464 36,000  Level Cleveland Center
06:03PM 42.4836 -79.2403 289° West 403 464 36,000  Level Cleveland Center
06:04PM 42.4997 -79.3806 279° West 394 453 36,000  Level Cleveland Center
06:05PM 42.5053 -79.5186 273° West 381 438 36,000  Level Cleveland Center
06:06PM 42.5086 -79.6567 272° West 381 438 36,000  Level Cleveland Center
06:07PM 42.5181 -79.7972 275° West 376 433 36,000  Level Cleveland Center
06:08PM 42.5250 -79.9325 274° West 371 427 36,000  Level Cleveland Center
06:09PM 42.5258 -80.0761 270° West 371 427 36,000  Level Cleveland Center
06:10PM 42.5347 -80.2000 276° West 371 427 36,000  Level Cleveland Center
06:11PM 42.5392 -80.3522 272° West 365 420 36,000  Level Cleveland Center
06:12PM 42.5436 -80.4706 273° West 365 420 36,000  Level Cleveland Center
06:13PM 42.5497 -80.6169 273° West 373 429 36,000  Level Cleveland Center
06:14PM 42.5539 -80.7494 272° West 366 421 36,000  Level Cleveland Center
06:15PM 42.5597 -80.8906 273° West 372 428 36,000  Level Cleveland Center
06:16PM 42.5656 -81.0314 273° West 366 421 36,000  Level Cleveland Center
06:17PM 42.5692 -81.1725 272° West 366 421 36,000  Level Cleveland Center
06:18PM 42.5747 -81.3106 273° West 361 415 36,000  Level Cleveland Center
06:19PM 42.5839 -81.4631 275° West 369 425 36,000  Level Cleveland Center
06:20PM 42.6078 -81.6044 283° West 376 433 36,000  Level Cleveland Center
06:21PM 42.6356 -81.7458 285° West 384 442 36,000  Level Cleveland Center
06:22PM 42.6550 -81.8761 282° West 384 442 36,000  Level Cleveland Center
06:23PM 42.6825 -82.0208 285° West 389 448 36,000  Level Cleveland Center
06:24PM 42.7056 -82.1653 282° West 389 448 36,000  Level Cleveland Center
06:25PM 42.7286 -82.3017 283° West 389 448 36,000  Level Cleveland Center
06:26PM 42.7556 -82.4581 283° West 389 448 36,000  Level Cleveland Center
06:27PM 42.7803 -82.5972 284° West 389 448 36,000  Level Cleveland Center
06:28PM 42.8028 -82.7339 283° West 384 442 36,000  Level Cleveland Center
06:29PM 42.8272 -82.8764 283° West 384 442 36,000  Level Cleveland Center
06:30PM 42.8472 -83.0186 281° West 384 442 36,000 -480 Level Cleveland Center
06:31PM 42.8711 -83.1583 283° West 384 442 35,100 -960 Descending Cleveland Center
06:32PM 42.8931 -83.2953 282° West 379 436 34,200 -960 Descending Cleveland Center
06:33PM 42.9167 -83.4353 283° West 374 430 33,200 -1,020 Descending Cleveland Center
06:34PM 42.9400 -83.5894 282° West 394 453 32,200 -600 Descending Cleveland Center
06:35PM 42.9611 -83.7353 281° West 402 463 32,000 -120 Descending Cleveland Center
06:36PM 42.9528 -83.8794 266° West 395 455 32,000  Level Cleveland Center
06:37PM 42.9383 -84.0233 262° West 383 441 32,000  Level Cleveland Center
06:38PM 42.9256 -84.1675 263° West 388 447 32,000  Level Cleveland Center
06:39PM 42.9106 -84.3111 262° West 388 447 32,000  Level Cleveland Center
06:40PM 42.8911 -84.5164 263° West 384 442 32,000  Level Chicago Center
06:41PM 42.8772 -84.6583 262° West 380 437 32,000  Level Chicago Center
06:42PM 42.8628 -84.8025 262° West 383 441 32,000  Level Chicago Center
06:43PM 42.8469 -84.9458 261° West 383 441 32,000  Level Chicago Center
06:44PM 42.8314 -85.0894 262° West 384 442 32,000  Level Chicago Center
06:45PM 42.8158 -85.2339 262° West 386 444 32,000  Level Chicago Center
06:46PM 42.7994 -85.3803 261° West 389 448 32,000 -780 Level Chicago Center
06:47PM 42.7769 -85.5556 260° West 391 450 30,400 -1,800 Descending Chicago Center
06:48PM 42.7506 -85.6994 256° West 390 449 28,300 -2,040 Descending Chicago Center
06:49PM 42.7261 -85.8381 257° West 379 436 26,300 -1,920 Descending Chicago Center
06:50PM 42.7011 -85.9722 256° West 367 422 24,400 -1,860 Descending Chicago Center
06:51PM 42.6775 -86.0994 256° West 353 406 22,500 -1,800 Descending Chicago Center
06:52PM 42.6564 -86.2192 257° West 333 383 20,800 -1,620 Descending Chicago Center
06:54PM 42.6339 -86.3336 255° West 318 366 19,200 -1,500 Descending Chicago Center
06:55PM 42.6133 -86.4417 256° West 299 344 17,700 -1,380 Descending Chicago Center
06:56PM 42.5892 -86.5728 256° West 299 344 16,400 -1,260 Descending Chicago Center
06:57PM 42.5689 -86.6806 256° West 295 339 15,200 -1,260 Descending Chicago Center
06:58PM 42.5450 -86.7831 252° West 286 329 13,900 -1,260 Descending Chicago Center
06:59PM 42.5175 -86.8833 250° West 284 327 12,700 -1,200 Descending Chicago Center
07:00PM 42.4919 -86.9817 251° West 279 321 11,500 -1,140 Descending Chicago Center
07:01PM 42.4667 -87.0675 248° West 251 289 10,400 -1,020 Descending Chicago Center
07:02PM 42.4431 -87.1542 250° West 247 284 9,500 -720 Descending Chicago Center
07:03PM 42.4019 -87.2492 240° Southwest 263 303 9,000 -300 Descending Chicago Center
07:04PM 42.3250 -87.2378 174° South 282 325 9,000 -180 Level Chicago Center
07:05PM 42.2542 -87.2203 170° South 286 329 8,700 -1,020 Descending Chicago Center
07:06PM 42.1644 -87.1997 170° South 275 316 7,000 -840 Descending Chicago Center
07:07PM 42.0878 -87.1806 169° South 280 322 7,000  Level Chicago Center
07:08PM 42.0233 -87.2203 205° Southwest 258 297 7,000  Level Chicago Center
07:09PM 41.9828 -87.2906 232° Southwest 240 276 7,000  Level Chicago Center
07:10PM 41.9825 -87.3689 270° West 209 241 7,000  Level Chicago Center
07:11PM 41.9833 -87.4372 271° West 189 217 7,000 -300 Level Chicago Center
07:12PM 41.9831 -87.5097 270° West 166 191 6,500 -720 Descending Chicago Center
07:13PM 41.9833 -87.5681 270° West 159 183 5,600 -840 Descending Chicago Center
07:14PM 41.9836 -87.6258 270° West 156 180 4,800 -900 Descending Chicago Center
07:15PM 41.9844 -87.6850 271° West 158 182 3,800 -1,020 Descending Chicago Center
07:16PM 41.9833 -87.7500 269° West 159 183 2,700 -960 Descending Chicago TRACON
07:17PM 41.9833 -87.8167 270° West 135 155 1,900 -780 Descending Chicago TRACON
07:18PM 41.9833 -87.8500 270° West 131 151 1,200 -720 Descending Chicago TRACON
07:20PM 41.9667 -87.9000 217° Southwest  Level FlightAware Approximate
07:27PM 41.9817 -87.9067 217° Southwest  Level Estimated